Time;durP1;ratioP1;P1;durP2;ratioP2;P2;SDS_P1;SDS_P2;PMS_P1;PMS_P2;Temp;Humidity;BMP_temperature;BMP_pressure;BME280_temperature;BME280_humidity;BME280_pressure;Samples;Min_cycle;Max_cycle;Signal;HPM_P1;HPM_P2
2021/10/21 00:00:27;;;;;;;12.80;4.60;;;12.60;90.70;;;;;;5018506;28;20185;-88
2021/10/21 00:02:53;;;;;;;11.13;4.83;;;12.50;90.70;;;;;;5036140;28;20207;-90
2021/10/21 00:05:19;;;;;;;9.80;4.50;;;12.60;90.80;;;;;;5018452;28;20556;-90
2021/10/21 00:07:45;;;;;;;11.57;4.73;;;12.60;90.80;;;;;;5018186;28;20266;-89
2021/10/21 00:10:11;;;;;;;15.90;4.87;;;12.40;91.10;;;;;;5018159;28;20192;-89
2021/10/21 00:12:38;;;;;;;12.57;5.47;;;12.50;91.00;;;;;;5018181;28;20188;-90
2021/10/21 00:15:07;;;;;;;12.30;5.00;;;12.50;91.10;;;;;;5018353;28;20184;-91
2021/10/21 00:17:32;;;;;;;11.43;5.37;;;12.50;91.30;;;;;;5018311;28;20188;-90
2021/10/21 00:19:58;;;;;;;15.27;5.00;;;12.60;91.20;;;;;;5017938;28;20188;-88
2021/10/21 00:22:24;;;;;;;18.00;7.73;;;12.60;91.30;;;;;;5017971;28;20212;-90
2021/10/21 00:24:50;;;;;;;18.17;6.47;;;12.70;91.20;;;;;;5018038;28;20204;-90
2021/10/21 00:27:18;;;;;;;14.33;7.73;;;12.70;91.20;;;;;;5018044;28;20212;-90
2021/10/21 00:29:44;;;;;;;11.63;6.80;;;12.80;91.50;;;;;;5035807;28;20188;-88
2021/10/21 00:32:11;;;;;;;12.93;6.10;;;12.80;91.30;;;;;;5017774;28;20200;-90
2021/10/21 00:34:37;;;;;;;14.90;6.50;;;12.80;91.30;;;;;;5017709;28;20215;-90
2021/10/21 00:37:02;;;;;;;15.57;5.37;;;12.90;91.30;;;;;;5017599;28;20216;-90
2021/10/21 00:39:28;;;;;;;10.37;5.87;;;12.90;91.10;;;;;;5017543;28;20197;-90
2021/10/21 00:41:53;;;;;;;16.57;7.03;;;13.00;91.10;;;;;;5017687;28;20180;-90
2021/10/21 00:44:20;;;;;;;12.30;6.93;;;13.00;91.10;;;;;;5017419;28;20205;-90
2021/10/21 00:46:46;;;;;;;11.37;6.33;;;13.10;91.00;;;;;;5017530;28;20176;-90
2021/10/21 00:49:12;;;;;;;15.37;7.50;;;13.10;91.00;;;;;;5035515;28;20316;-90
2021/10/21 00:51:39;;;;;;;12.83;6.00;;;13.20;90.90;;;;;;5017507;28;20177;-90
2021/10/21 00:54:05;;;;;;;15.80;6.83;;;13.20;90.80;;;;;;5017359;28;20275;-90
2021/10/21 00:56:32;;;;;;;14.57;6.73;;;13.20;90.90;;;;;;5035054;28;20181;-90
2021/10/21 00:58:58;;;;;;;12.43;6.13;;;13.10;90.90;;;;;;5016313;28;20201;-90
2021/10/21 01:01:28;;;;;;;11.90;6.10;;;13.00;90.80;;;;;;5017222;28;20187;-91
2021/10/21 01:03:53;;;;;;;12.43;5.27;;;12.90;90.80;;;;;;5017156;28;20204;-91
2021/10/21 01:06:19;;;;;;;13.97;6.17;;;12.80;91.00;;;;;;5017530;28;20180;-90
2021/10/21 01:08:45;;;;;;;14.97;6.27;;;12.80;91.10;;;;;;5035010;28;20221;-90
2021/10/21 01:11:14;;;;;;;7.47;5.73;;;12.70;91.30;;;;;;5017017;28;20637;-91
2021/10/21 01:13:39;;;;;;;14.43;7.37;;;12.70;91.50;;;;;;5034714;28;20246;-91
2021/10/21 01:16:08;;;;;;;16.23;7.13;;;12.70;91.80;;;;;;5016980;28;20651;-90
2021/10/21 01:18:34;;;;;;;15.40;7.30;;;12.70;91.80;;;;;;5016853;28;20286;-90
2021/10/21 01:21:01;;;;;;;17.93;7.80;;;12.70;92.00;;;;;;5017695;28;20691;-90
2021/10/21 01:23:27;;;;;;;11.00;7.53;;;12.70;92.00;;;;;;5016845;28;20660;-91
2021/10/21 01:25:52;;;;;;;12.97;7.90;;;12.70;92.20;;;;;;5016764;28;20192;-91
2021/10/21 01:28:18;;;;;;;12.00;7.43;;;12.70;92.20;;;;;;5016729;28;20196;-91
2021/10/21 01:30:44;;;;;;;13.37;6.97;;;12.70;92.30;;;;;;5017268;28;20215;-90
2021/10/21 01:33:10;;;;;;;11.60;6.97;;;12.80;92.30;;;;;;5016614;28;20583;-90
2021/10/21 01:35:37;;;;;;;19.60;7.83;;;12.80;92.20;;;;;;5016575;28;20176;-91
2021/10/21 01:38:03;;;;;;;12.90;7.17;;;12.80;92.20;;;;;;5016439;28;20210;-91
2021/10/21 01:40:28;;;;;;;15.50;7.87;;;12.80;92.20;;;;;;5016604;28;20185;-90
2021/10/21 01:42:54;;;;;;;14.00;8.23;;;12.80;92.20;;;;;;5016378;28;20234;-90
2021/10/21 01:45:21;;;;;;;14.73;7.90;;;12.80;92.30;;;;;;5016359;28;20212;-91
2021/10/21 01:47:47;;;;;;;12.83;7.80;;;12.80;92.40;;;;;;5016706;28;20303;-90
2021/10/21 01:50:13;;;;;;;13.07;7.40;;;12.80;92.40;;;;;;5016526;28;20664;-90
2021/10/21 01:52:39;;;;;;;12.20;8.60;;;12.80;92.50;;;;;;5034442;28;20176;-91
2021/10/21 01:55:07;;;;;;;14.07;8.50;;;12.80;92.50;;;;;;5016695;28;20203;-90
2021/10/21 01:57:32;;;;;;;13.27;7.43;;;12.80;92.50;;;;;;5016281;28;20696;-90
2021/10/21 01:59:58;;;;;;;16.07;8.53;;;12.80;92.50;;;;;;5016403;28;20214;-90
2021/10/21 02:02:24;;;;;;;13.30;8.33;;;12.80;92.50;;;;;;5016012;28;20187;-90
2021/10/21 02:04:49;;;;;;;14.40;8.70;;;12.80;92.70;;;;;;5033697;28;20177;-90
2021/10/21 02:07:15;;;;;;;15.90;8.70;;;12.80;92.90;;;;;;5016080;28;20177;-90
2021/10/21 02:09:41;;;;;;;13.33;8.07;;;12.80;92.90;;;;;;5015581;28;20205;-91
2021/10/21 02:12:07;;;;;;;14.33;8.67;;;12.90;92.90;;;;;;5034217;28;20255;-91
2021/10/21 02:14:32;;;;;;;12.80;7.37;;;12.90;92.90;;;;;;5016214;28;20652;-91
2021/10/21 02:16:59;;;;;;;17.27;7.97;;;12.90;92.90;;;;;;5040466;22;20281;-89
2021/10/21 02:19:24;;;;;;;14.80;8.90;;;12.90;92.90;;;;;;5016679;28;20836;-89
2021/10/21 02:21:50;;;;;;;13.97;7.80;;;12.90;93.00;;;;;;5016210;28;20172;-89
2021/10/21 02:24:16;;;;;;;16.10;7.53;;;12.90;93.00;;;;;;5016470;28;20204;-89
2021/10/21 02:26:42;;;;;;;10.47;7.50;;;12.90;93.20;;;;;;5033711;28;20193;-89
2021/10/21 02:29:07;;;;;;;12.53;7.90;;;12.80;93.40;;;;;;5016211;28;20172;-89
2021/10/21 02:31:33;;;;;;;14.70;8.57;;;12.80;93.40;;;;;;5016156;28;20191;-89
2021/10/21 02:33:59;;;;;;;16.03;8.83;;;12.80;93.50;;;;;;5016425;28;20543;-89
2021/10/21 02:36:24;;;;;;;22.53;8.87;;;12.90;93.50;;;;;;5016062;28;20246;-89
2021/10/21 02:38:50;;;;;;;16.03;7.77;;;12.90;93.50;;;;;;5016402;28;20181;-89
2021/10/21 02:41:16;;;;;;;14.03;8.00;;;12.80;93.60;;;;;;5016498;28;20180;-89
2021/10/21 02:43:42;;;;;;;16.97;8.17;;;12.80;93.70;;;;;;5033532;28;20192;-89
2021/10/21 02:46:08;;;;;;;15.90;7.30;;;12.80;93.70;;;;;;5015706;28;20173;-89
2021/10/21 02:48:34;;;;;;;14.87;6.73;;;12.80;93.80;;;;;;5015719;28;20590;-88
2021/10/21 02:51:00;;;;;;;10.13;6.33;;;12.80;93.80;;;;;;5015806;28;20285;-88
2021/10/21 02:53:25;;;;;;;12.57;5.93;;;12.80;93.80;;;;;;5015720;28;20192;-88
2021/10/21 02:55:51;;;;;;;12.90;6.10;;;12.80;93.80;;;;;;5015705;28;20216;-89
2021/10/21 02:58:17;;;;;;;11.87;6.03;;;12.80;93.80;;;;;;5016827;28;20525;-89
2021/10/21 03:00:43;;;;;;;9.83;6.20;;;12.80;93.80;;;;;;5015800;28;20190;-89
2021/10/21 03:03:08;;;;;;;12.03;5.73;;;12.90;93.80;;;;;;5015832;28;20295;-89
2021/10/21 03:05:34;;;;;;;12.10;5.17;;;12.80;93.70;;;;;;5033481;28;20256;-89
2021/10/21 03:08:00;;;;;;;9.37;5.13;;;12.90;93.70;;;;;;5015608;28;20197;-89
2021/10/21 03:10:25;;;;;;;10.30;5.00;;;12.80;93.70;;;;;;5015764;28;20578;-89
2021/10/21 03:12:51;;;;;;;11.47;5.53;;;12.80;93.60;;;;;;5015871;28;20176;-89
2021/10/21 03:15:17;;;;;;;10.00;5.10;;;12.80;93.70;;;;;;5015882;28;20227;-89
2021/10/21 03:17:42;;;;;;;9.90;5.10;;;12.80;93.80;;;;;;5015372;28;20236;-89
2021/10/21 03:20:12;;;;;;;11.07;5.27;;;12.90;93.80;;;;;;5016014;28;20177;-89
2021/10/21 03:22:39;;;;;;;10.33;4.90;;;12.90;93.80;;;;;;5018080;28;20231;-89
2021/10/21 03:25:07;;;;;;;8.47;4.83;;;12.90;93.80;;;;;;5019418;28;20180;-89
2021/10/21 03:27:33;;;;;;;10.90;5.43;;;12.80;93.70;;;;;;5036910;28;20180;-89
2021/10/21 03:29:59;;;;;;;8.70;5.07;;;12.80;93.80;;;;;;5019410;28;20198;-89
2021/10/21 03:32:24;;;;;;;13.20;5.60;;;12.90;93.80;;;;;;5019553;28;20267;-89
2021/10/21 03:34:50;;;;;;;9.33;5.20;;;12.80;93.80;;;;;;5019091;28;20176;-89
2021/10/21 03:37:16;;;;;;;7.83;4.77;;;12.90;93.90;;;;;;5036730;28;20712;-89
2021/10/21 03:39:42;;;;;;;10.60;4.90;;;12.80;93.90;;;;;;5019191;28;20169;-89
2021/10/21 03:42:08;;;;;;;9.17;5.07;;;12.80;93.90;;;;;;5019078;28;20595;-89
2021/10/21 03:44:35;;;;;;;9.10;4.53;;;12.80;93.90;;;;;;5019851;28;20180;-89
2021/10/21 03:47:02;;;;;;;5.47;4.67;;;12.80;93.90;;;;;;5036585;28;20732;-89
2021/10/21 03:49:28;;;;;;;8.00;3.70;;;12.80;94.00;;;;;;5018898;28;20187;-89
2021/10/21 03:51:53;;;;;;;10.10;4.13;;;12.80;94.00;;;;;;5018882;28;20259;-89
2021/10/21 03:54:19;;;;;;;7.07;3.53;;;12.80;93.90;;;;;;5018822;28;20733;-89
2021/10/21 03:56:45;;;;;;;8.47;3.73;;;12.80;93.90;;;;;;5036300;28;20201;-89
2021/10/21 03:59:11;;;;;;;8.33;3.97;;;12.80;93.90;;;;;;5036516;28;20176;-89
2021/10/21 04:01:37;;;;;;;6.73;4.00;;;12.80;93.90;;;;;;5036483;28;20183;-89
2021/10/21 04:04:03;;;;;;;9.00;4.27;;;12.80;93.90;;;;;;5018555;28;20649;-89
2021/10/21 04:06:28;;;;;;;6.77;4.23;;;12.80;93.90;;;;;;5036225;28;20204;-89
2021/10/21 04:08:54;;;;;;;9.00;4.20;;;12.90;93.90;;;;;;5018667;28;20195;-88
2021/10/21 04:11:20;;;;;;;7.13;4.50;;;13.00;93.90;;;;;;5018677;28;20223;-89
2021/10/21 04:13:45;;;;;;;8.67;5.00;;;13.00;93.80;;;;;;5018392;28;20181;-88
2021/10/21 04:16:11;;;;;;;9.43;5.53;;;13.10;93.90;;;;;;5018954;28;20632;-88
2021/10/21 04:18:37;;;;;;;5.47;3.60;;;13.20;93.90;;;;;;5018454;28;20540;-89
2021/10/21 04:21:03;;;;;;;4.10;2.27;;;13.30;93.10;;;;;;5036449;28;20165;-88
2021/10/21 04:23:29;;;;;;;4.20;2.17;;;13.40;91.40;;;;;;5018617;28;20200;-88
2021/10/21 04:25:54;;;;;;;2.27;1.87;;;13.40;90.90;;;;;;5018235;28;20180;-88
2021/10/21 04:28:20;;;;;;;2.20;1.67;;;13.40;90.20;;;;;;5018212;28;20268;-88
2021/10/21 04:30:46;;;;;;;4.60;2.77;;;13.40;90.30;;;;;;5018439;28;20276;-88
2021/10/21 04:33:11;;;;;;;1.63;1.50;;;13.30;90.40;;;;;;5017772;28;20184;-88
2021/10/21 04:35:37;;;;;;;17.13;3.83;;;13.30;90.20;;;;;;5018734;28;20184;-87
2021/10/21 04:38:04;;;;;;;8.27;2.47;;;13.00;90.00;;;;;;5018500;28;20200;-87
2021/10/21 04:40:30;;;;;;;15.23;3.23;;;12.30;88.30;;;;;;5017908;28;20187;-88
2021/10/21 04:42:56;;;;;;;5.50;1.73;;;11.80;89.60;;;;;;5017885;28;20652;-88
2021/10/21 04:45:22;;;;;;;5.50;2.27;;;12.20;88.50;;;;;;5017899;28;20176;-88
2021/10/21 04:47:48;;;;;;;4.20;2.47;;;12.30;89.10;;;;;;5035674;28;20211;-88
2021/10/21 04:50:14;;;;;;;5.00;1.97;;;12.10;90.70;;;;;;5017909;28;20665;-88
2021/10/21 04:52:40;;;;;;;4.70;1.63;;;12.30;89.00;;;;;;5017668;28;20185;-89
2021/10/21 04:55:09;;;;;;;2.77;1.57;;;12.60;87.20;;;;;;5017960;28;20189;-89
2021/10/21 04:57:35;;;;;;;4.77;1.33;;;12.60;86.50;;;;;;5017699;28;20204;-88
2021/10/21 05:00:01;;;;;;;2.73;1.33;;;12.80;85.70;;;;;;5017573;28;20242;-88
2021/10/21 05:02:26;;;;;;;4.17;1.40;;;12.60;86.50;;;;;;5017538;28;20210;-88
2021/10/21 05:04:52;;;;;;;7.03;2.60;;;12.60;86.60;;;;;;5035510;28;20644;-89
2021/10/21 05:07:17;;;;;;;6.67;1.80;;;12.50;87.00;;;;;;5035347;28;20668;-88
2021/10/21 05:09:43;;;;;;;3.20;1.70;;;12.50;87.00;;;;;;5035074;28;20687;-88
2021/10/21 05:12:09;;;;;;;10.53;2.10;;;12.50;86.70;;;;;;5017236;28;20181;-88
2021/10/21 05:14:34;;;;;;;5.20;1.83;;;12.40;87.70;;;;;;5017269;28;20192;-88
2021/10/21 05:17:00;;;;;;;5.43;1.60;;;12.30;88.30;;;;;;5017460;28;20304;-89
2021/10/21 05:19:26;;;;;;;6.10;1.60;;;12.20;87.80;;;;;;5034826;28;20197;-89
2021/10/21 05:21:52;;;;;;;8.10;1.80;;;12.20;87.30;;;;;;5017267;28;20219;-89
2021/10/21 05:24:18;;;;;;;3.63;1.60;;;12.10;87.10;;;;;;5017038;28;20291;-88
2021/10/21 05:26:43;;;;;;;1.27;1.10;;;12.10;86.00;;;;;;5017531;28;20627;-89
2021/10/21 05:29:09;;;;;;;3.00;1.07;;;12.00;85.10;;;;;;5016992;28;20599;-89
2021/10/21 05:31:35;;;;;;;2.30;1.10;;;12.00;84.40;;;;;;5016968;28;20220;-88
2021/10/21 05:34:02;;;;;;;5.93;1.20;;;11.90;84.00;;;;;;5017050;28;20212;-88
2021/10/21 05:36:27;;;;;;;3.93;1.50;;;11.80;84.00;;;;;;5034745;28;20199;-89
2021/10/21 05:38:53;;;;;;;2.03;1.33;;;11.80;84.10;;;;;;5034787;28;20181;-88
2021/10/21 05:41:19;;;;;;;4.73;1.57;;;11.80;83.90;;;;;;5017778;28;20177;-88
2021/10/21 05:43:44;;;;;;;2.23;1.30;;;11.70;84.00;;;;;;5034173;28;20208;-89
2021/10/21 05:46:10;;;;;;;1.60;0.90;;;11.80;83.50;;;;;;5034542;28;20525;-88
2021/10/21 05:48:35;;;;;;;5.23;1.10;;;11.80;83.60;;;;;;5034306;28;20181;-89
2021/10/21 05:51:01;;;;;;;7.80;1.37;;;11.70;84.20;;;;;;5016604;28;20192;-88
2021/10/21 05:53:27;;;;;;;1.97;0.83;;;11.60;85.10;;;;;;5016954;28;20676;-88
2021/10/21 05:55:53;;;;;;;4.90;1.23;;;11.70;84.40;;;;;;5016398;28;20187;-88
2021/10/21 05:58:18;;;;;;;5.00;1.37;;;11.70;84.50;;;;;;5016270;28;20187;-88
2021/10/21 06:00:44;;;;;;;2.30;1.20;;;11.80;84.40;;;;;;5016349;28;20173;-88
2021/10/21 06:03:10;;;;;;;1.37;0.97;;;11.80;84.30;;;;;;5016521;28;20203;-89
2021/10/21 06:05:36;;;;;;;8.47;1.60;;;11.70;84.50;;;;;;5016666;28;20648;-88
2021/10/21 06:08:02;;;;;;;4.77;1.70;;;11.70;84.80;;;;;;5016163;28;20193;-88
2021/10/21 06:10:28;;;;;;;6.50;2.10;;;11.70;85.20;;;;;;5016133;28;20713;-88
2021/10/21 06:12:55;;;;;;;2.30;1.00;;;11.70;85.40;;;;;;5033805;28;20256;-88
2021/10/21 06:15:21;;;;;;;2.63;1.37;;;11.60;86.00;;;;;;5016221;28;20268;-89
2021/10/21 06:17:48;;;;;;;4.33;1.30;;;11.50;86.50;;;;;;5015897;28;20208;-88
2021/10/21 06:20:14;;;;;;;4.47;1.00;;;11.50;86.70;;;;;;5034021;28;20169;-88
2021/10/21 06:22:40;;;;;;;6.40;1.47;;;11.40;86.80;;;;;;5017100;28;20236;-88
2021/10/21 06:25:08;;;;;;;7.40;1.30;;;11.30;87.20;;;;;;5016289;28;20230;-88
2021/10/21 06:27:34;;;;;;;3.43;1.40;;;11.30;87.80;;;;;;5015989;28;20204;-89
2021/10/21 06:30:00;;;;;;;4.97;1.90;;;11.20;88.20;;;;;;5016057;28;20173;-89
2021/10/21 06:32:25;;;;;;;4.07;1.40;;;11.10;88.60;;;;;;5016246;28;20177;-88
2021/10/21 06:34:51;;;;;;;7.00;1.70;;;11.10;88.70;;;;;;5033661;28;20577;-88
2021/10/21 06:37:17;;;;;;;3.83;1.57;;;11.10;89.00;;;;;;5033618;28;20548;-88
2021/10/21 06:39:43;;;;;;;4.07;1.90;;;11.00;89.50;;;;;;5016370;28;20181;-88
2021/10/21 06:42:08;;;;;;;5.20;2.00;;;11.00;90.00;;;;;;5016226;28;20176;-89
2021/10/21 06:44:34;;;;;;;3.27;1.50;;;10.90;90.50;;;;;;5016093;28;20604;-89
2021/10/21 06:47:01;;;;;;;7.40;2.00;;;10.90;90.70;;;;;;5015884;28;20203;-89
2021/10/21 06:49:27;;;;;;;9.27;1.90;;;10.90;91.10;;;;;;5016265;28;20175;-89
2021/10/21 06:51:53;;;;;;;8.30;2.20;;;10.80;91.40;;;;;;5016269;28;20172;-89
2021/10/21 06:54:19;;;;;;;8.40;1.90;;;10.80;91.60;;;;;;5015780;28;20295;-88
2021/10/21 06:56:45;;;;;;;2.27;1.30;;;10.80;91.60;;;;;;5036599;28;20196;-88
2021/10/21 06:59:10;;;;;;;2.33;1.10;;;10.90;91.30;;;;;;5020063;28;20208;-88
2021/10/21 07:01:36;;;;;;;1.23;0.80;;;10.90;90.50;;;;;;5020012;28;20173;-88
2021/10/21 07:04:04;;;;;;;3.03;1.10;;;10.90;89.20;;;;;;5020040;28;20238;-89
2021/10/21 07:06:30;;;;;;;0.60;0.60;;;10.90;88.90;;;;;;5037712;28;20192;-89
2021/10/21 07:08:57;;;;;;;1.17;0.83;;;10.80;88.10;;;;;;5019748;28;20180;-88
2021/10/21 07:11:22;;;;;;;2.10;0.80;;;10.80;88.00;;;;;;5019651;28;20176;-88
2021/10/21 07:13:48;;;;;;;2.37;1.10;;;10.70;88.00;;;;;;5019563;28;20188;-88
2021/10/21 07:16:14;;;;;;;1.43;0.83;;;10.70;88.30;;;;;;5019340;28;20235;-88
2021/10/21 07:18:39;;;;;;;0.90;0.80;;;10.60;88.20;;;;;;5019512;28;20263;-88
2021/10/21 07:21:05;;;;;;;1.87;1.00;;;10.60;88.10;;;;;;5037372;28;20183;-88
2021/10/21 07:23:31;;;;;;;0.80;0.80;;;10.60;89.10;;;;;;5019441;28;20676;-88
2021/10/21 07:25:56;;;;;;;1.70;0.87;;;10.50;89.20;;;;;;5019231;28;20264;-88
2021/10/21 07:28:22;;;;;;;0.70;0.70;;;10.50;89.50;;;;;;5019886;28;20187;-88
2021/10/21 07:30:59;;;;;;;1.87;0.83;;;10.40;89.70;;;;;;5037266;28;20283;-88
2021/10/21 07:33:26;;;;;;;1.37;0.73;;;10.40;90.40;;;;;;5036924;28;20210;-88
2021/10/21 07:35:51;;;;;;;1.60;0.70;;;10.40;90.30;;;;;;5037440;28;20596;-88
2021/10/21 07:38:17;;;;;;;1.17;0.70;;;10.50;90.20;;;;;;5036802;28;20216;-88
2021/10/21 07:40:43;;;;;;;1.97;1.00;;;10.50;90.20;;;;;;5019497;28;20187;-88
2021/10/21 07:43:13;;;;;;;1.63;0.83;;;10.50;90.00;;;;;;5019170;28;20200;-88
2021/10/21 07:45:38;;;;;;;0.90;0.73;;;10.50;90.20;;;;;;5036783;28;20165;-89
2021/10/21 07:48:06;;;;;;;1.13;0.90;;;10.60;90.70;;;;;;5018985;28;20203;-88
2021/10/21 07:50:33;;;;;;;1.90;0.60;;;10.60;90.70;;;;;;5019155;28;20177;-88
2021/10/21 07:53:00;;;;;;;0.93;0.60;;;10.60;90.70;;;;;;5036631;28;20259;-88
2021/10/21 07:55:25;;;;;;;0.93;0.63;;;10.60;90.80;;;;;;5019052;28;20180;-89
2021/10/21 07:57:51;;;;;;;2.07;0.70;;;10.70;90.60;;;;;;5018541;28;20211;-89
2021/10/21 08:00:17;;;;;;;0.97;0.70;;;10.60;90.40;;;;;;5037100;28;20181;-89
2021/10/21 08:02:43;;;;;;;3.07;1.00;;;10.70;90.60;;;;;;5036314;28;20534;-89
2021/10/21 08:05:09;;;;;;;4.60;1.07;;;10.60;91.00;;;;;;5036576;28;20176;-88
2021/10/21 08:07:48;;;;;;;5.43;1.47;;;10.60;91.30;;;;;;5035743;28;20200;-89
2021/10/21 08:10:17;;;;;;;7.97;2.83;;;10.40;91.00;;;;;;5019065;28;20177;-89
2021/10/21 08:12:42;;;;;;;7.33;1.27;;;10.30;91.20;;;;;;5019096;28;20184;-89
2021/10/21 08:15:10;;;;;;;5.70;1.20;;;10.30;91.30;;;;;;5019024;28;20185;-89
2021/10/21 08:17:37;;;;;;;3.53;1.33;;;10.30;91.40;;;;;;5142882;23;20228;-89
2021/10/21 08:20:03;;;;;;;7.57;1.27;;;10.30;91.20;;;;;;5018053;28;20231;-90
2021/10/21 08:22:29;;;;;;;6.73;1.17;;;10.20;90.60;;;;;;5018019;28;20215;-89
2021/10/21 08:24:55;;;;;;;4.73;1.40;;;10.20;90.80;;;;;;5017984;28;20661;-89
2021/10/21 08:27:21;;;;;;;2.13;1.03;;;10.20;90.30;;;;;;5017808;28;20193;-89
2021/10/21 08:29:47;;;;;;;9.53;1.20;;;10.20;90.60;;;;;;5035680;28;20541;-90
2021/10/21 08:32:13;;;;;;;5.33;1.40;;;10.20;90.50;;;;;;5017903;28;20169;-90
2021/10/21 08:34:39;;;;;;;5.47;1.30;;;10.20;90.70;;;;;;5035572;28;20184;-89
2021/10/21 08:37:06;;;;;;;4.27;1.20;;;10.20;90.20;;;;;;5018045;28;20690;-89
2021/10/21 08:39:35;;;;;;;7.10;1.40;;;10.20;90.50;;;;;;5017710;28;20180;-89
2021/10/21 08:42:00;;;;;;;6.70;1.30;;;10.20;90.80;;;;;;5035478;28;20180;-89
2021/10/21 08:44:26;;;;;;;4.50;1.43;;;10.20;90.80;;;;;;5035270;28;20201;-89
2021/10/21 08:46:53;;;;;;;5.40;2.17;;;10.20;90.60;;;;;;5017472;28;20192;-89
2021/10/21 08:49:19;;;;;;;8.70;1.50;;;10.20;90.60;;;;;;5017828;28;20172;-90
2021/10/21 08:51:46;;;;;;;6.63;1.20;;;10.30;90.60;;;;;;5035322;28;20323;-90
2021/10/21 08:54:12;;;;;;;2.23;1.00;;;10.30;90.80;;;;;;5017973;28;20180;-90
2021/10/21 08:56:39;;;;;;;11.33;1.20;;;10.40;90.70;;;;;;5017324;28;20173;-89
2021/10/21 08:59:05;;;;;;;7.57;1.50;;;10.50;90.70;;;;;;5017276;28;20188;-89
2021/10/21 09:02:10;;;;;;;7.93;1.40;;;10.50;90.70;;;;;;5035124;28;20651;-89
2021/10/21 09:05:13;;;;;;;5.00;1.33;;;10.50;90.70;;;;;;5030928;28;20200;-90
2021/10/21 09:09:45;;;;;;;15.20;2.10;;;10.70;91.20;;;;;;5035205;28;20641;-90
2021/10/21 09:12:15;;;;;;;14.77;1.57;;;10.80;91.20;;;;;;5017465;28;20191;-90
2021/10/21 09:14:43;;;;;;;11.20;2.63;;;10.70;90.90;;;;;;5017114;28;20168;-89
2021/10/21 09:17:11;;;;;;;10.27;1.90;;;10.70;90.90;;;;;;5016885;28;20239;-90
2021/10/21 09:19:39;;;;;;;8.27;1.70;;;10.70;91.00;;;;;;5016093;28;20188;-89
2021/10/21 09:22:18;;;;;;;8.83;2.07;;;10.80;90.80;;;;;;5034977;28;20164;-90
2021/10/21 09:24:44;;;;;;;8.90;1.47;;;10.80;90.40;;;;;;5016863;28;20192;-90
2021/10/21 09:27:12;;;;;;;8.30;1.40;;;10.80;91.00;;;;;;5016850;28;20283;-90
2021/10/21 09:29:46;;;;;;;11.33;2.40;;;10.80;90.20;;;;;;5034639;28;20165;-90
2021/10/21 09:32:31;;;;;;;7.77;1.53;;;10.90;90.20;;;;;;5016880;28;20621;-90
2021/10/21 09:35:01;;;;;;;9.20;1.70;;;10.90;90.60;;;;;;5016862;28;20165;-89
2021/10/21 09:37:30;;;;;;;7.77;1.60;;;10.80;90.60;;;;;;5034982;28;20188;-90
2021/10/21 09:40:01;;;;;;;10.10;1.80;;;10.80;90.60;;;;;;5016758;28;20177;-87
2021/10/21 09:42:59;;;;;;;11.20;1.93;;;10.80;90.60;;;;;;5016903;28;20164;-87
2021/10/21 09:45:31;;;;;;;15.67;2.00;;;10.70;90.60;;;;;;4984579;28;20176;-88
2021/10/21 09:47:58;;;;;;;5.90;1.43;;;10.60;91.20;;;;;;5016950;28;20200;-87
2021/10/21 09:50:53;;;;;;;11.73;1.80;;;10.50;91.60;;;;;;5017074;28;20173;-88
2021/10/21 09:53:22;;;;;;;7.60;1.57;;;10.50;92.00;;;;;;5011474;28;20184;-87
2021/10/21 09:55:51;;;;;;;9.00;1.97;;;10.50;92.00;;;;;;5016621;28;20177;-87
2021/10/21 09:58:20;;;;;;;6.37;1.27;;;10.50;91.70;;;;;;5016745;28;20299;-87
2021/10/21 10:00:46;;;;;;;8.83;1.70;;;10.50;91.80;;;;;;5016640;28;20180;-87
2021/10/21 10:03:22;;;;;;;5.20;1.33;;;10.50;91.80;;;;;;5034194;28;20218;-87
2021/10/21 10:05:49;;;;;;;9.87;2.50;;;10.50;92.00;;;;;;5016475;28;20549;-87
2021/10/21 10:08:25;;;;;;;14.00;2.30;;;10.60;92.30;;;;;;5016411;28;20192;-88
2021/10/21 10:10:56;;;;;;;10.10;1.93;;;10.60;92.20;;;;;;5034528;28;20524;-87
2021/10/21 10:13:22;;;;;;;17.10;2.67;;;10.70;92.30;;;;;;5034137;28;20176;-87
2021/10/21 10:15:50;;;;;;;10.60;1.73;;;10.70;91.90;;;;;;5016304;28;20212;-87
2021/10/21 10:18:22;;;;;;;9.53;1.40;;;10.80;91.50;;;;;;5033798;28;20200;-87
2021/10/21 10:21:07;;;;;;;5.10;1.57;;;10.80;90.30;;;;;;5033996;28;20174;-87
2021/10/21 10:23:36;;;;;;;11.27;1.97;;;10.90;90.30;;;;;;5016163;28;20189;-88
2021/10/21 10:26:01;;;;;;;14.63;2.60;;;11.10;90.30;;;;;;5016058;28;20267;-87
2021/10/21 10:28:53;;;;;;;12.67;2.10;;;11.40;90.60;;;;;;5016389;28;20723;-89
2021/10/21 10:31:43;;;;;;;14.63;2.47;;;11.60;89.90;;;;;;5016260;28;20613;-89
2021/10/21 10:34:30;;;;;;;14.83;2.67;;;11.50;88.60;;;;;;5033643;28;20168;-89
2021/10/21 10:36:55;;;;;;;16.23;2.53;;;11.30;88.80;;;;;;5015711;28;20200;-89
2021/10/21 10:39:47;;;;;;;8.63;2.03;;;11.30;89.30;;;;;;5015801;28;20185;-89
2021/10/21 10:42:14;;;;;;;9.43;1.67;;;11.30;89.60;;;;;;5016614;28;20597;-89
2021/10/21 10:44:48;;;;;;;21.63;4.67;;;11.30;88.20;;;;;;5033378;28;20212;-89
2021/10/21 10:47:15;;;;;;;2.80;1.27;;;11.20;85.70;;;;;;5015763;28;20195;-88
2021/10/21 10:49:45;;;;;;;14.33;2.17;;;11.20;85.40;;;;;;5016568;28;20275;-89
2021/10/21 10:52:16;;;;;;;16.53;2.43;;;11.20;85.50;;;;;;5015684;28;20171;-89
2021/10/21 10:54:51;;;;;;;15.47;3.17;;;11.20;84.80;;;;;;5033358;28;20183;-89
2021/10/21 10:57:19;;;;;;;11.70;2.00;;;11.30;85.30;;;;;;5033621;28;20607;-89
2021/10/21 10:59:46;;;;;;;17.10;2.90;;;11.20;84.80;;;;;;5015633;28;20172;-89
2021/10/21 11:02:25;;;;;;;16.53;2.27;;;11.10;86.60;;;;;;5015784;28;20193;-88
2021/10/21 11:04:57;;;;;;;29.37;6.60;;;11.00;86.40;;;;;;5015611;28;20215;-89
2021/10/21 11:07:40;;;;;;;11.37;2.60;;;11.10;85.80;;;;;;5033151;28;20554;-89
2021/10/21 11:10:19;;;;;;;13.03;2.73;;;11.10;85.60;;;;;;5016872;28;20160;-89
2021/10/21 11:12:51;;;;;;;16.07;2.50;;;11.30;84.50;;;;;;5015762;28;20176;-87
2021/10/21 11:15:29;;;;;;;15.73;2.23;;;11.30;84.70;;;;;;5016180;28;20207;-89
2021/10/21 11:17:56;;;;;;;15.13;2.03;;;11.20;85.40;;;;;;5015559;28;20299;-87
2021/10/21 11:20:27;;;;;;;8.87;2.53;;;11.00;85.90;;;;;;5033110;28;20172;-88
2021/10/21 11:23:02;;;;;;;8.73;1.53;;;10.80;83.90;;;;;;5033001;28;20231;-88
2021/10/21 11:25:33;;;;;;;6.37;2.10;;;10.80;83.20;;;;;;5015413;28;20259;-88
2021/10/21 11:28:00;;;;;;;19.67;2.43;;;10.80;83.10;;;;;;5015791;28;20196;-88
2021/10/21 11:30:32;;;;;;;12.37;1.77;;;11.10;83.20;;;;;;5033059;28;20223;-88
2021/10/21 11:33:01;;;;;;;10.53;2.07;;;11.20;82.40;;;;;;5033247;28;20231;-89
2021/10/21 11:35:33;;;;;;;13.87;1.83;;;11.00;80.90;;;;;;5032820;28;20203;-89
2021/10/21 11:38:01;;;;;;;8.00;1.73;;;10.90;81.40;;;;;;5015302;28;20254;-88
2021/10/21 11:40:39;;;;;;;10.77;1.93;;;11.10;80.00;;;;;;5032958;28;20256;-89
2021/10/21 11:43:25;;;;;;;9.13;1.67;;;11.30;80.00;;;;;;5018009;28;20193;-89
2021/10/21 11:45:55;;;;;;;9.17;1.80;;;11.60;80.00;;;;;;5019068;28;20199;-86
2021/10/21 11:48:34;;;;;;;15.40;1.87;;;11.90;79.60;;;;;;5036919;28;20192;-86
2021/10/21 11:51:03;;;;;;;11.00;2.33;;;12.20;78.20;;;;;;5018784;28;20648;-86
2021/10/21 11:53:29;;;;;;;9.67;2.17;;;12.00;79.90;;;;;;5018770;28;20172;-87
2021/10/21 11:55:56;;;;;;;11.50;2.10;;;11.50;79.10;;;;;;5018754;28;20172;-86
2021/10/21 11:58:25;;;;;;;12.63;2.03;;;11.30;81.40;;;;;;5018657;28;20205;-86
2021/10/21 12:00:53;;;;;;;11.90;2.97;;;11.40;82.20;;;;;;5018747;28;20176;-87
2021/10/21 12:03:33;;;;;;;9.40;1.90;;;11.60;81.70;;;;;;5018407;28;20189;-86
2021/10/21 12:05:59;;;;;;;10.93;2.00;;;11.60;81.40;;;;;;5018747;28;20207;-86
2021/10/21 12:08:26;;;;;;;8.07;1.80;;;11.70;81.40;;;;;;5018477;28;20188;-87
2021/10/21 12:10:57;;;;;;;9.90;2.37;;;11.70;82.00;;;;;;5018570;28;20252;-86
2021/10/21 12:13:27;;;;;;;14.10;2.40;;;11.80;80.70;;;;;;5036256;28;20247;-87
2021/10/21 12:15:55;;;;;;;6.30;1.40;;;11.70;79.90;;;;;;5036031;28;20618;-87
2021/10/21 12:18:22;;;;;;;9.53;1.73;;;11.50;80.00;;;;;;5035788;28;20622;-86
2021/10/21 12:20:55;;;;;;;6.53;1.80;;;11.40;77.70;;;;;;5018253;28;20187;-86
2021/10/21 12:23:33;;;;;;;9.20;1.80;;;11.20;79.20;;;;;;5018319;28;20223;-87
2021/10/21 12:26:04;;;;;;;10.87;2.20;;;11.30;78.50;;;;;;5018199;28;20157;-86
2021/10/21 12:28:45;;;;;;;15.93;2.23;;;11.30;77.20;;;;;;5018204;28;20254;-87
2021/10/21 12:31:16;;;;;;;14.10;2.20;;;11.30;77.30;;;;;;5018104;28;20172;-86
2021/10/21 12:33:49;;;;;;;15.97;2.27;;;11.30;76.30;;;;;;5035711;28;20177;-87
2021/10/21 12:36:21;;;;;;;8.77;2.37;;;11.40;76.60;;;;;;5035613;28;20173;-86
2021/10/21 12:38:51;;;;;;;7.97;2.47;;;11.40;75.90;;;;;;5017723;28;20192;-87
2021/10/21 12:41:17;;;;;;;18.07;2.63;;;11.40;77.60;;;;;;5017778;28;20633;-87
2021/10/21 12:43:57;;;;;;;9.83;2.00;;;11.40;79.00;;;;;;5035484;28;20189;-87
2021/10/21 12:46:27;;;;;;;11.23;1.80;;;11.00;78.60;;;;;;5035494;28;20153;-87
2021/10/21 12:49:14;;;;;;;18.80;4.20;;;10.70;81.30;;;;;;5017565;28;20195;-90